Time;durP1;ratioP1;P1;durP2;ratioP2;P2;SDS_P1;SDS_P2;PMS_P1;PMS_P2;Temp;Humidity;BMP_temperature;BMP_pressure;BME280_temperature;BME280_humidity;BME280_pressure;Samples;Min_cycle;Max_cycle;Signal;HPM_P1;HPM_P2
2022/04/17 00:01:42;;;;;;;16.10;11.53;;;;;;;5.83;60.40;101968.59;5079083;28;20476;-69
2022/04/17 00:04:10;;;;;;;12.77;10.10;;;;;;;5.78;60.31;101968.81;5079572;28;20547;-69
2022/04/17 00:06:37;;;;;;;15.40;11.80;;;;;;;5.79;60.43;101964.38;5078543;28;20575;-69
2022/04/17 00:09:04;;;;;;;13.97;10.43;;;;;;;5.85;60.08;101962.31;5078711;28;20451;-69
2022/04/17 00:11:31;;;;;;;14.07;11.33;;;;;;;5.79;60.31;101957.25;5078242;28;20525;-69
2022/04/17 00:13:59;;;;;;;14.03;11.30;;;;;;;5.74;60.49;101955.75;5077865;28;20452;-69
2022/04/17 00:16:27;;;;;;;13.77;11.30;;;;;;;5.73;60.51;101951.34;5078426;28;20467;-69
2022/04/17 00:18:54;;;;;;;14.17;11.90;;;;;;;5.69;60.16;101947.97;5079166;28;20448;-70
2022/04/17 00:21:22;;;;;;;13.57;10.43;;;;;;;5.72;59.63;101949.66;5078069;28;20475;-69
2022/04/17 00:23:49;;;;;;;12.67;10.40;;;;;;;5.62;61.01;101952.72;5080037;28;20562;-69
2022/04/17 00:26:16;;;;;;;15.03;10.70;;;;;;;5.45;60.82;101948.13;5082374;28;20463;-70
2022/04/17 00:28:43;;;;;;;15.93;11.53;;;;;;;5.45;61.10;101945.47;5081806;28;20481;-70
2022/04/17 00:31:09;;;;;;;15.10;11.13;;;;;;;5.38;61.38;101951.09;5081821;28;20468;-71
2022/04/17 00:33:37;;;;;;;17.40;12.87;;;;;;;5.26;62.02;101945.41;5081950;28;20826;-69
2022/04/17 00:36:05;;;;;;;14.70;10.23;;;;;;;5.36;60.93;101931.72;5081972;28;20472;-69
2022/04/17 00:38:31;;;;;;;16.60;10.83;;;;;;;5.39;60.41;101936.91;5082633;28;20448;-70
2022/04/17 00:40:58;;;;;;;13.63;10.13;;;;;;;5.32;61.07;101927.50;5081499;28;20478;-70
2022/04/17 00:43:26;;;;;;;12.93;9.67;;;;;;;5.14;62.05;101931.78;5081576;28;20476;-70
2022/04/17 00:45:53;;;;;;;12.90;10.23;;;;;;;5.02;63.17;101935.81;5081963;28;20953;-70
2022/04/17 00:48:19;;;;;;;16.27;10.70;;;;;;;4.90;63.58;101930.09;5082320;28;20444;-70
2022/04/17 00:50:50;;;;;;;21.30;10.40;;;;;;;4.83;63.95;101925.97;5068628;28;20483;-69
2022/04/17 00:53:17;;;;;;;12.70;9.27;;;;;;;4.76;63.91;101927.13;5062716;28;20463;-69
2022/04/17 00:55:44;;;;;;;13.53;9.20;;;;;;;4.70;64.11;101916.78;5061908;28;20549;-70
2022/04/17 00:58:11;;;;;;;12.83;8.30;;;;;;;4.71;63.71;101922.00;5061555;28;20479;-69
2022/04/17 01:00:38;;;;;;;10.40;8.33;;;;;;;4.84;62.35;101919.75;5060505;28;20510;-70
2022/04/17 01:03:05;;;;;;;12.43;8.13;;;;;;;4.88;62.29;101915.19;5062196;28;20483;-69
2022/04/17 01:05:32;;;;;;;9.90;8.57;;;;;;;4.85;63.36;101915.31;5061627;28;20462;-70
2022/04/17 01:08:00;;;;;;;9.03;7.97;;;;;;;4.77;63.64;101905.00;5062492;28;20445;-69
2022/04/17 01:10:27;;;;;;;11.30;9.40;;;;;;;4.66;64.81;101910.72;5061138;28;20466;-69
2022/04/17 01:12:54;;;;;;;10.00;8.20;;;;;;;4.59;64.72;101913.72;5061615;28;20440;-69
2022/04/17 01:15:21;;;;;;;10.87;8.00;;;;;;;4.57;63.80;101902.31;5061818;28;20448;-69
2022/04/17 01:17:48;;;;;;;15.53;10.17;;;;;;;4.80;62.30;101906.69;5062301;28;20441;-69
2022/04/17 01:20:16;;;;;;;12.00;9.93;;;;;;;4.79;64.48;101907.59;5060330;28;20524;-69
2022/04/17 01:22:48;;;;;;;15.60;11.27;;;;;;;4.81;67.00;101911.91;5061834;28;20473;-69
2022/04/17 01:27:58;;;;;;;13.37;11.57;;;;;;;4.57;73.95;101900.53;5053911;28;20515;-69
2022/04/17 01:30:26;;;;;;;13.60;11.33;;;;;;;4.48;75.08;101901.75;5060682;28;20449;-69
2022/04/17 01:32:52;;;;;;;17.80;13.47;;;;;;;4.42;75.63;101898.47;5061833;28;20441;-69
2022/04/17 01:35:19;;;;;;;16.20;12.90;;;;;;;4.24;75.42;101908.00;5060506;28;20521;-69
2022/04/17 01:37:48;;;;;;;14.97;11.80;;;;;;;4.12;75.24;101907.53;5061617;28;20441;-70
2022/04/17 01:40:15;;;;;;;14.63;12.20;;;;;;;4.04;75.10;101906.94;5060946;28;20452;-69
2022/04/17 01:42:42;;;;;;;16.50;13.23;;;;;;;4.00;74.67;101905.34;5061263;28;20549;-69
2022/04/17 01:45:11;;;;;;;15.30;11.90;;;;;;;3.85;74.28;101904.13;5060600;28;20808;-69
2022/04/17 01:47:37;;;;;;;13.30;11.87;;;;;;;4.05;73.86;101890.16;5060900;28;20433;-69
2022/04/17 01:50:05;;;;;;;13.47;11.43;;;;;;;3.99;73.22;101885.09;5060983;28;20454;-69
2022/04/17 01:52:31;;;;;;;15.53;11.67;;;;;;;3.90;71.30;101882.81;5074631;28;20467;-69
2022/04/17 01:54:59;;;;;;;12.97;11.13;;;;;;;4.05;69.40;101884.88;5080776;28;20539;-69
2022/04/17 01:57:26;;;;;;;12.10;10.07;;;;;;;4.20;67.60;101883.44;5080553;28;20492;-69
2022/04/17 01:59:53;;;;;;;14.50;10.87;;;;;;;4.25;67.02;101893.81;5080706;28;20505;-69
2022/04/17 02:02:19;;;;;;;14.00;11.10;;;;;;;4.07;68.89;101890.13;5080117;28;20498;-70
2022/04/17 02:04:46;;;;;;;14.03;11.40;;;;;;;3.96;69.70;101887.88;5080637;28;20479;-69
2022/04/17 02:07:14;;;;;;;16.73;11.60;;;;;;;3.96;69.21;101891.38;5080051;28;20479;-70
2022/04/17 02:09:41;;;;;;;14.43;11.17;;;;;;;4.01;68.29;101890.34;5080607;28;20521;-69
2022/04/17 02:12:09;;;;;;;13.10;10.47;;;;;;;4.04;68.26;101891.06;5080191;28;20510;-68
2022/04/17 02:14:36;;;;;;;14.03;11.00;;;;;;;4.01;67.98;101888.56;5080714;28;20456;-69
2022/04/17 02:17:03;;;;;;;14.00;11.30;;;;;;;3.97;67.87;101884.28;5080299;28;20475;-69
2022/04/17 02:19:29;;;;;;;14.13;11.27;;;;;;;4.01;68.19;101883.28;5080271;28;20535;-68
2022/04/17 02:21:56;;;;;;;12.57;10.93;;;;;;;3.89;68.45;101870.47;5080548;28;20483;-72
2022/04/17 02:24:23;;;;;;;11.37;10.20;;;;;;;3.86;68.44;101867.97;5080820;28;20483;-69
2022/04/17 02:26:50;;;;;;;15.07;10.87;;;;;;;3.76;68.46;101873.59;5080394;28;20483;-70
2022/04/17 02:29:18;;;;;;;12.03;10.40;;;;;;;3.67;69.27;101886.31;5079498;28;20475;-72
2022/04/17 02:31:45;;;;;;;13.70;11.00;;;;;;;3.60;69.72;101885.66;5085252;28;20553;-69
2022/04/17 02:34:13;;;;;;;12.00;10.30;;;;;;;3.57;69.99;101881.31;5080608;28;20950;-69
2022/04/17 02:36:39;;;;;;;11.50;10.27;;;;;;;3.53;70.03;101878.88;5079876;28;20468;-69
2022/04/17 02:39:06;;;;;;;15.30;11.27;;;;;;;3.51;69.95;101862.19;5080219;28;20551;-69
2022/04/17 02:41:33;;;;;;;15.07;10.50;;;;;;;3.53;70.46;101866.50;5080091;28;20567;-69
2022/04/17 02:44:00;;;;;;;15.23;11.33;;;;;;;3.69;70.36;101858.88;5078929;28;20494;-69
2022/04/17 02:49:12;;;;;;;13.20;9.77;;;;;;;3.47;70.77;101860.56;5079341;28;20501;-70
2022/04/17 02:51:39;;;;;;;14.50;10.83;;;;;;;3.33;71.13;101861.06;5079526;28;20484;-69
2022/04/17 02:54:06;;;;;;;14.23;11.73;;;;;;;3.24;71.68;101871.97;5080409;28;20444;-69
2022/04/17 02:56:32;;;;;;;13.83;10.43;;;;;;;3.23;71.92;101875.50;5079597;28;20476;-69
2022/04/17 02:58:59;;;;;;;15.90;11.37;;;;;;;3.22;72.00;101858.81;5079355;28;20875;-69
2022/04/17 03:06:56;;;;;;;14.57;10.90;;;;;;;3.33;71.80;101845.19;5079255;28;20533;-68
2022/04/17 03:09:23;;;;;;;12.80;10.70;;;;;;;3.28;71.59;101844.50;5080165;28;20513;-68
2022/04/17 03:11:50;;;;;;;14.50;11.50;;;;;;;3.16;71.90;101835.22;5078939;28;20924;-69
2022/04/17 03:14:17;;;;;;;11.67;10.00;;;;;;;3.06;72.37;101834.69;5079317;28;20502;-68
2022/04/17 03:16:45;;;;;;;18.03;11.77;;;;;;;3.05;72.36;101832.97;5066708;28;20523;-68
2022/04/17 03:19:13;;;;;;;14.20;10.50;;;;;;;3.00;72.22;101827.84;5079325;28;20515;-67
2022/04/17 03:21:39;;;;;;;13.13;10.67;;;;;;;2.95;72.66;101828.91;5079580;28;20485;-68
2022/04/17 03:24:06;;;;;;;12.73;10.83;;;;;;;2.92;72.80;101816.69;5079575;28;20522;-68
2022/04/17 03:26:36;;;;;;;14.30;11.27;;;;;;;2.94;72.61;101824.56;5070926;28;20558;-68
2022/04/17 03:29:03;;;;;;;15.47;11.60;;;;;;;3.00;72.71;101825.22;5078390;28;20452;-68
2022/04/17 03:31:30;;;;;;;14.00;11.07;;;;;;;2.95;72.85;101819.22;5079423;28;20482;-68
2022/04/17 03:33:58;;;;;;;14.90;11.67;;;;;;;2.95;73.24;101820.97;5079906;28;20440;-68
2022/04/17 03:36:25;;;;;;;14.20;10.90;;;;;;;2.86;73.52;101813.38;5080160;28;20479;-68
2022/04/17 03:38:52;;;;;;;18.43;12.60;;;;;;;2.83;73.22;101814.34;5079608;28;20451;-68
2022/04/17 03:41:21;;;;;;;13.40;10.13;;;;;;;2.77;73.32;101819.84;5079266;28;20499;-69
2022/04/17 03:43:47;;;;;;;12.37;10.37;;;;;;;2.91;73.03;101811.44;5078415;28;20488;-70
2022/04/17 03:46:14;;;;;;;15.40;12.10;;;;;;;2.81;72.98;101808.25;5078134;28;20480;-70
2022/04/17 03:48:41;;;;;;;14.63;11.17;;;;;;;2.64;73.56;101809.69;5079196;28;20448;-70
2022/04/17 03:51:10;;;;;;;12.50;10.40;;;;;;;2.63;73.52;101805.31;5077793;28;20547;-68
2022/04/17 03:53:37;;;;;;;13.57;10.77;;;;;;;2.58;73.48;101817.78;5079844;28;20466;-68
2022/04/17 03:56:04;;;;;;;15.73;10.90;;;;;;;2.80;73.26;101819.75;5078491;28;20503;-69
2022/04/17 03:58:30;;;;;;;14.70;11.50;;;;;;;2.73;73.17;101812.94;5079426;28;20456;-69
2022/04/17 04:00:57;;;;;;;14.23;10.80;;;;;;;2.68;73.30;101812.22;5078275;28;20871;-71
2022/04/17 04:03:24;;;;;;;16.40;11.20;;;;;;;2.64;73.31;101824.69;5083360;28;21069;-69
2022/04/17 04:05:52;;;;;;;14.87;12.23;;;;;;;2.55;73.84;101824.97;5082711;28;20464;-69
2022/04/17 04:08:20;;;;;;;14.10;10.80;;;;;;;2.49;74.59;101826.03;5083145;28;20444;-71
2022/04/17 04:10:47;;;;;;;15.43;11.50;;;;;;;2.40;75.20;101821.91;5082125;28;20475;-71
2022/04/17 04:13:13;;;;;;;13.93;12.10;;;;;;;2.35;75.49;101820.34;5082389;28;20513;-71
2022/04/17 04:15:40;;;;;;;13.03;10.63;;;;;;;2.35;75.76;101815.06;5082206;28;20719;-70
2022/04/17 04:18:07;;;;;;;12.87;10.80;;;;;;;2.39;75.47;101816.69;5079959;28;20448;-71
2022/04/17 04:20:34;;;;;;;17.50;11.87;;;;;;;2.31;75.36;101816.06;5082340;28;20497;-71
2022/04/17 04:23:01;;;;;;;15.07;11.67;;;;;;;2.29;75.33;101812.59;5083219;28;20853;-68
2022/04/17 04:25:29;;;;;;;14.17;12.47;;;;;;;2.26;75.63;101810.94;5082712;28;20471;-68
2022/04/17 04:30:40;;;;;;;15.57;11.30;;;;;;;2.33;74.94;101809.84;5080609;28;20830;-68
2022/04/17 04:33:08;;;;;;;12.50;11.20;;;;;;;2.38;74.84;101807.06;5082616;28;20511;-68
2022/04/17 04:35:35;;;;;;;16.93;12.50;;;;;;;2.43;74.85;101805.09;5082069;28;20468;-68
2022/04/17 04:38:02;;;;;;;13.63;10.80;;;;;;;2.47;74.85;101809.38;5081861;28;20443;-70
2022/04/17 04:40:32;;;;;;;13.47;11.27;;;;;;;2.66;74.83;101809.63;5093690;28;20477;-70
2022/04/17 04:42:59;;;;;;;16.13;12.57;;;;;;;2.81;74.48;101805.59;5101733;28;20533;-70
2022/04/17 04:48:10;;;;;;;15.33;12.77;;;;;;;3.05;73.43;101800.41;5083027;28;20443;-74
2022/04/17 04:50:36;;;;;;;16.47;12.33;;;;;;;3.27;72.63;101804.00;5081744;28;20505;-74
2022/04/17 04:53:03;;;;;;;13.47;12.07;;;;;;;3.45;72.23;101791.03;5081879;28;20957;-73
2022/04/17 04:55:31;;;;;;;14.40;12.33;;;;;;;3.72;71.93;101799.72;5070697;28;20970;-77
2022/04/17 04:58:01;;;;;;;14.90;12.37;;;;;;;4.74;69.83;101799.16;5082130;28;20436;-75
2022/04/17 05:00:27;;;;;;;13.97;11.80;;;;;;;5.99;64.68;101798.94;5081153;28;20534;-77
2022/04/17 05:02:54;;;;;;;14.10;10.27;;;;;;;6.53;60.82;101797.16;5094139;28;20443;-78
2022/04/17 05:05:21;;;;;;;13.23;8.20;;;;;;;6.95;59.82;101798.59;5101972;28;20526;-75
2022/04/17 05:07:48;;;;;;;9.93;8.80;;;;;;;7.86;55.94;101808.84;5082467;28;20440;-71
2022/04/17 05:10:15;;;;;;;13.07;9.13;;;;;;;8.54;53.82;101800.63;5080970;28;20456;-72
2022/04/17 05:12:43;;;;;;;9.97;8.90;;;;;;;8.52;53.49;101802.50;5082514;28;20440;-74
2022/04/17 05:15:11;;;;;;;10.40;8.63;;;;;;;9.92;50.30;101799.31;5080898;28;20456;-71
2022/04/17 05:17:37;;;;;;;12.57;9.00;;;;;;;10.35;47.00;101798.38;5081807;28;20477;-72
2022/04/17 05:20:05;;;;;;;10.13;8.03;;;;;;;10.28;46.76;101805.06;5081505;28;20452;-70
2022/04/17 05:22:33;;;;;;;11.20;9.30;;;;;;;10.38;46.50;101803.53;5082038;28;20454;-71
2022/04/17 05:25:00;;;;;;;10.03;9.03;;;;;;;10.19;47.21;101806.53;5081965;28;20488;-68
2022/04/17 05:27:27;;;;;;;9.00;8.07;;;;;;;10.81;47.01;101810.50;5080851;28;20963;-69
2022/04/17 05:29:56;;;;;;;11.77;9.03;;;;;;;12.40;42.98;101801.00;5079873;28;20491;-67
2022/04/17 05:32:22;;;;;;;10.90;8.60;;;;;;;12.31;43.11;101799.03;5081801;28;20487;-67
2022/04/17 05:34:49;;;;;;;10.47;9.37;;;;;;;12.43;42.29;101798.09;5081861;28;20539;-67
2022/04/17 05:37:16;;;;;;;12.83;8.53;;;;;;;12.24;42.70;101803.13;5081017;28;20533;-67
2022/04/17 05:39:43;;;;;;;10.80;9.63;;;;;;;11.42;43.76;101810.75;5081312;28;20478;-67
2022/04/17 05:42:10;;;;;;;10.90;9.87;;;;;;;11.43;44.65;101801.78;5080605;28;20698;-67
2022/04/17 05:44:38;;;;;;;10.60;9.50;;;;;;;11.71;43.63;101799.81;5079829;28;20504;-67
2022/04/17 05:47:06;;;;;;;12.53;9.80;;;;;;;12.91;41.77;101807.06;5080921;28;20506;-67
2022/04/17 05:49:33;;;;;;;10.97;9.40;;;;;;;13.62;39.08;101818.56;5080395;28;20542;-66
2022/04/17 05:52:00;;;;;;;12.07;10.03;;;;;;;14.04;38.16;101823.28;5080343;28;20518;-67
2022/04/17 05:54:27;;;;;;;10.63;9.33;;;;;;;14.86;36.57;101830.91;5081355;28;20451;-67
2022/04/17 05:56:54;;;;;;;10.43;9.43;;;;;;;14.53;37.19;101830.03;5080527;28;20484;-68
2022/04/17 05:59:20;;;;;;;9.73;8.80;;;;;;;12.58;40.94;101841.69;5076862;28;20460;-68
2022/04/17 06:01:47;;;;;;;10.43;8.87;;;;;;;13.82;38.67;101834.91;5076497;28;20471;-67
2022/04/17 06:04:15;;;;;;;10.27;9.27;;;;;;;13.03;39.98;101837.47;5080636;28;20491;-68
2022/04/17 06:06:43;;;;;;;9.70;8.73;;;;;;;15.06;36.22;101835.44;5081447;28;20502;-68
2022/04/17 06:09:10;;;;;;;9.73;8.30;;;;;;;14.50;36.38;101831.13;5086391;28;21002;-68
2022/04/17 06:11:36;;;;;;;11.47;9.57;;;;;;;14.55;35.95;101835.25;5096747;28;20484;-68
2022/04/17 06:14:03;;;;;;;12.20;9.50;;;;;;;14.87;35.82;101832.59;5079919;28;20467;-68
2022/04/17 06:16:32;;;;;;;11.57;10.37;;;;;;;15.24;34.01;101824.06;5078928;28;20472;-68
2022/04/17 06:18:59;;;;;;;10.00;8.90;;;;;;;15.06;34.23;101819.28;5095768;28;20909;-68
2022/04/17 06:21:28;;;;;;;10.93;8.93;;;;;;;15.47;33.75;101823.91;5085195;28;20472;-68
2022/04/17 06:23:55;;;;;;;9.87;8.87;;;;;;;17.88;30.40;101809.81;5079938;28;20475;-68
2022/04/17 06:26:22;;;;;;;8.67;7.87;;;;;;;19.28;28.09;101813.81;5079508;28;20456;-68
2022/04/17 06:28:48;;;;;;;10.27;8.60;;;;;;;18.30;29.06;101805.69;5079745;28;20478;-68
2022/04/17 06:31:15;;;;;;;10.17;9.00;;;;;;;16.71;31.21;101811.91;5079845;28;20475;-68
2022/04/17 06:33:42;;;;;;;9.10;8.20;;;;;;;16.74;30.38;101798.13;5079258;28;20476;-68
2022/04/17 06:36:09;;;;;;;9.47;8.47;;;;;;;16.54;31.37;101802.66;5082001;28;20506;-68
2022/04/17 06:38:37;;;;;;;12.77;9.47;;;;;;;16.41;31.91;101805.63;5100327;28;20454;-68
2022/04/17 06:41:04;;;;;;;8.90;8.00;;;;;;;15.78;32.37;101793.28;5059120;28;20484;-68
2022/04/17 06:43:30;;;;;;;10.87;8.47;;;;;;;15.62;32.47;101790.22;5073976;28;20454;-68
2022/04/17 06:45:57;;;;;;;10.67;8.00;;;;;;;15.54;32.64;101796.28;5079350;28;20486;-68
2022/04/17 06:48:25;;;;;;;10.50;8.27;;;;;;;16.96;30.73;101793.41;5098299;28;20864;-68
2022/04/17 06:50:53;;;;;;;8.60;7.37;;;;;;;16.38;30.60;101785.16;5097553;28;20545;-69
2022/04/17 06:53:20;;;;;;;11.93;7.43;;;;;;;15.49;32.92;101781.53;5059466;28;20494;-68
2022/04/17 06:55:48;;;;;;;8.60;7.70;;;;;;;15.28;33.23;101790.50;5059370;28;20829;-69
2022/04/17 06:58:15;;;;;;;9.27;8.30;;;;;;;16.48;31.40;101792.44;5059607;28;20445;-68
2022/04/17 07:00:42;;;;;;;8.27;7.40;;;;;;;15.78;32.42;101787.06;5057735;28;20473;-68
2022/04/17 07:03:09;;;;;;;9.17;8.27;;;;;;;15.22;33.95;101783.81;5059609;28;20409;-69
2022/04/17 07:05:36;;;;;;;9.50;8.00;;;;;;;15.38;33.94;101799.47;5057924;28;20480;-68
2022/04/17 07:08:03;;;;;;;8.10;6.87;;;;;;;15.25;34.38;101783.50;5054376;28;20440;-68
2022/04/17 07:10:31;;;;;;;8.40;7.60;;;;;;;16.60;31.53;101775.09;5050849;28;20477;-68
2022/04/17 07:12:59;;;;;;;8.80;7.50;;;;;;;17.52;29.87;101772.78;5039450;28;20456;-68
2022/04/17 07:15:26;;;;;;;9.40;8.30;;;;;;;18.53;28.66;101775.44;5048179;28;20475;-69
2022/04/17 07:17:53;;;;;;;11.40;9.00;;;;;;;17.73;29.52;101769.84;5064933;28;20441;-69
2022/04/17 07:20:21;;;;;;;11.70;8.70;;;;;;;19.21;27.41;101776.69;5066874;28;20460;-69
2022/04/17 07:22:48;;;;;;;9.40;7.70;;;;;;;20.26;25.52;101770.00;5056902;28;20449;-69
2022/04/17 07:25:15;;;;;;;8.93;8.03;;;;;;;19.40;27.28;101773.72;5065186;28;21013;-69
2022/04/17 07:27:43;;;;;;;9.10;7.60;;;;;;;18.92;28.25;101778.69;5056908;28;20487;-69
2022/04/17 07:30:13;;;;;;;8.87;7.50;;;;;;;18.87;27.71;101777.44;5067108;28;20796;-69
2022/04/17 07:32:40;;;;;;;10.90;8.50;;;;;;;18.90;28.02;101780.69;5055795;28;20464;-68
2022/04/17 07:35:08;;;;;;;8.07;7.27;;;;;;;18.69;28.38;101777.44;5065213;28;20456;-69
2022/04/17 07:37:35;;;;;;;9.20;7.63;;;;;;;18.36;29.35;101767.16;5065397;28;20448;-69
2022/04/17 07:40:02;;;;;;;8.20;7.47;;;;;;;19.25;28.00;101772.63;5061290;28;20448;-69
2022/04/17 07:42:29;;;;;;;8.23;6.87;;;;;;;20.09;27.03;101763.69;5061968;28;20999;-69
2022/04/17 07:44:56;;;;;;;6.77;6.17;;;;;;;19.53;27.47;101759.75;5061026;28;20500;-68
2022/04/17 07:47:27;;;;;;;8.23;6.93;;;;;;;20.06;26.60;101753.13;5061230;28;20905;-69
2022/04/17 07:49:54;;;;;;;8.47;6.80;;;;;;;19.67;27.94;101747.38;5056149;28;20514;-69
2022/04/17 07:52:21;;;;;;;9.40;7.33;;;;;;;19.88;26.71;101750.56;5071187;28;20491;-73
2022/04/17 07:54:49;;;;;;;7.40;6.50;;;;;;;20.17;26.69;101749.25;5092709;28;20444;-69
2022/04/17 07:57:15;;;;;;;7.63;6.83;;;;;;;19.68;27.31;101746.38;5096479;28;20545;-69
2022/04/17 07:59:42;;;;;;;8.47;7.57;;;;;;;18.97;27.71;101745.69;5084915;28;20452;-68
2022/04/17 08:02:27;;;;;;;7.97;7.03;;;;;;;19.44;28.05;101752.56;5081050;28;20490;-68
2022/04/17 08:04:56;;;;;;;6.77;6.07;;;;;;;20.18;26.57;101752.84;5081426;28;20549;-68
2022/04/17 08:07:23;;;;;;;7.97;6.93;;;;;;;19.40;27.71;101752.03;5080539;28;20471;-68
2022/04/17 08:09:50;;;;;;;7.03;6.33;;;;;;;19.90;26.60;101759.38;5088633;28;20443;-68
2022/04/17 08:12:16;;;;;;;8.20;7.37;;;;;;;18.22;29.74;101754.16;5089132;28;20546;-69
2022/04/17 08:14:43;;;;;;;8.23;6.73;;;;;;;18.83;29.51;101748.97;5079121;28;20459;-68
2022/04/17 08:17:10;;;;;;;7.30;6.50;;;;;;;19.63;27.52;101737.88;5080560;28;20599;-68
2022/04/17 08:19:37;;;;;;;9.47;7.20;;;;;;;20.61;25.83;101748.13;5071914;28;20451;-68
2022/04/17 08:22:05;;;;;;;7.93;6.43;;;;;;;20.82;25.29;101745.75;5079693;28;20482;-69
2022/04/17 08:24:35;;;;;;;7.20;6.00;;;;;;;20.00;26.62;101740.25;5072832;28;20997;-69
2022/04/17 08:27:02;;;;;;;9.73;5.90;;;;;;;21.60;25.17;101740.66;5079945;28;20471;-69
2022/04/17 08:29:30;;;;;;;7.20;5.57;;;;;;;21.39;24.73;101755.66;5075034;28;21209;-69
2022/04/17 08:31:57;;;;;;;6.90;6.00;;;;;;;21.55;24.14;101746.59;5060387;28;20503;-69
2022/04/17 08:34:24;;;;;;;8.97;5.77;;;;;;;20.62;25.17;101739.84;5060521;28;20910;-69
2022/04/17 08:36:51;;;;;;;6.40;5.70;;;;;;;20.84;25.09;101737.44;5059819;28;20491;-69
2022/04/17 08:39:19;;;;;;;7.40;6.20;;;;;;;20.34;25.23;101738.44;5061239;28;20537;-69
2022/04/17 08:41:49;;;;;;;6.77;5.83;;;;;;;20.38;26.37;101729.78;5079801;28;20481;-69
2022/04/17 08:44:16;;;;;;;8.07;5.80;;;;;;;21.03;24.75;101728.03;5079970;28;20435;-69
2022/04/17 08:46:43;;;;;;;6.87;5.70;;;;;;;20.40;25.54;101737.75;5080954;28;20480;-69
2022/04/17 08:49:10;;;;;;;7.50;5.53;;;;;;;20.63;24.94;101730.66;5075347;28;20456;-69
2022/04/17 08:51:38;;;;;;;6.33;5.10;;;;;;;21.13;24.74;101727.88;5072465;28;20493;-69
2022/04/17 08:54:06;;;;;;;7.50;5.60;;;;;;;20.37;24.94;101724.50;5059957;28;20489;-69
2022/04/17 08:56:37;;;;;;;4.67;4.13;;;;;;;19.82;25.37;101718.63;5059527;28;20549;-70
2022/04/17 08:59:04;;;;;;;5.73;5.00;;;;;;;20.86;25.14;101714.47;5050573;28;20477;-69
2022/04/17 09:01:32;;;;;;;6.27;5.37;;;;;;;20.24;24.38;101725.88;5047710;28;20886;-69
2022/04/17 09:03:59;;;;;;;5.87;4.60;;;;;;;19.88;25.66;101712.56;5052665;28;20451;-69
2022/04/17 09:06:25;;;;;;;5.67;4.87;;;;;;;20.24;25.54;101711.41;5049859;28;20503;-69
2022/04/17 09:09:03;;;;;;;5.80;4.67;;;;;;;20.73;24.23;101707.88;5055698;28;20477;-69
2022/04/17 09:11:31;;;;;;;5.07;4.50;;;;;;;20.60;23.60;101706.50;5056350;28;20484;-68
2022/04/17 09:14:01;;;;;;;5.20;4.57;;;;;;;19.06;25.84;101714.06;5056508;28;20456;-68
2022/04/17 09:16:29;;;;;;;3.77;3.40;;;;;;;19.97;24.69;101693.59;5059811;28;20474;-69
2022/04/17 09:18:57;;;;;;;5.53;3.70;;;;;;;20.92;22.75;101691.22;5059866;28;20475;-69
2022/04/17 09:21:34;;;;;;;5.67;3.30;;;;;;;20.64;22.71;101690.72;5060054;28;20972;-69
2022/04/17 09:24:15;;;;;;;9.63;3.40;;;;;;;20.85;22.55;101690.22;5068317;28;20493;-68
2022/04/17 09:26:49;;;;;;;3.37;2.67;;;;;;;21.37;22.21;101678.81;5072115;28;20939;-69
2022/04/17 09:29:25;;;;;;;3.67;2.60;;;;;;;20.28;21.95;101675.63;5069131;28;20587;-69
2022/04/17 09:31:59;;;;;;;5.30;2.63;;;;;;;19.42;22.93;101679.47;5070180;28;20547;-69
2022/04/17 09:34:26;;;;;;;4.30;2.43;;;;;;;19.77;22.27;101677.56;5061673;28;21060;-68
2022/04/17 09:36:57;;;;;;;3.73;3.37;;;;;;;18.98;23.29;101674.22;5058525;28;20469;-69
2022/04/17 09:39:23;;;;;;;3.80;3.10;;;;;;;20.21;22.33;101673.75;5059329;28;20465;-69
2022/04/17 09:41:55;;;;;;;2.90;1.80;;;;;;;20.16;21.50;101665.28;5055377;28;20487;-69
2022/04/17 09:44:47;;;;;;;2.10;1.47;;;;;;;18.75;20.18;101672.00;5053940;28;20550;-69
2022/04/17 09:47:16;;;;;;;4.93;1.77;;;;;;;20.43;19.32;101664.06;5050782;28;20499;-69
2022/04/17 09:49:54;;;;;;;1.30;0.90;;;;;;;19.83;20.70;101655.22;5061635;28;20433;-69
2022/04/17 09:52:22;;;;;;;2.83;2.10;;;;;;;21.81;19.14;101655.63;5056323;28;20526;-69
2022/04/17 09:54:49;;;;;;;3.00;2.10;;;;;;;20.21;20.79;101646.59;5064098;28;20472;-69
2022/04/17 09:57:20;;;;;;;2.00;1.47;;;;;;;20.16;20.75;101646.25;5050662;28;20787;-68
2022/04/17 09:59:50;;;;;;;4.63;2.30;;;;;;;20.29;20.00;101639.31;5055281;28;20452;-68
2022/04/17 10:02:17;;;;;;;2.70;1.40;;;;;;;20.75;19.96;101637.91;5055489;28;20484;-68
2022/04/17 10:04:45;;;;;;;2.20;1.67;;;;;;;20.56;19.19;101629.06;5067601;28;20878;-68
2022/04/17 10:07:14;;;;;;;2.63;1.73;;;;;;;20.54;19.26;101630.28;5058921;28;20459;-68
2022/04/17 10:09:41;;;;;;;1.90;1.23;;;;;;;20.06;19.66;101621.97;5064757;28;20472;-68
2022/04/17 10:12:08;;;;;;;2.20;1.60;;;;;;;20.56;19.05;101622.78;5077975;28;20761;-68
2022/04/17 10:14:37;;;;;;;2.70;1.30;;;;;;;19.75;19.27;101626.22;5065024;28;20895;-68
2022/04/17 10:17:08;;;;;;;3.13;1.67;;;;;;;19.54;19.80;101610.34;5057579;28;21042;-68
2022/04/17 10:19:36;;;;;;;2.67;1.67;;;;;;;20.38;19.07;101612.09;5058140;28;20471;-69
2022/04/17 10:22:04;;;;;;;2.80;1.83;;;;;;;19.94;20.14;101602.47;5061847;28;20512;-69
2022/04/17 10:24:32;;;;;;;2.50;1.93;;;;;;;19.88;19.89;101603.16;5064019;28;20452;-68
2022/04/17 10:27:00;;;;;;;3.37;1.80;;;;;;;20.21;20.10;101595.00;5057749;28;20510;-69
2022/04/17 10:29:29;;;;;;;3.17;1.90;;;;;;;19.86;21.34;101594.31;5057130;28;20460;-68
2022/04/17 10:32:16;;;;;;;3.57;2.60;;;;;;;20.43;21.22;101582.56;5057670;28;20492;-68
2022/04/17 10:34:59;;;;;;;3.40;2.27;;;;;;;19.54;21.13;101577.78;5058318;28;20452;-68
2022/04/17 10:37:46;;;;;;;4.00;1.90;;;;;;;19.37;20.70;101590.50;5057660;28;20469;-69
2022/04/17 10:40:13;;;;;;;3.00;1.90;;;;;;;20.18;20.61;101582.59;5057390;28;20489;-68
2022/04/17 10:42:57;;;;;;;4.17;1.57;;;;;;;20.34;20.45;101570.88;5054430;28;20460;-68
2022/04/17 10:45:25;;;;;;;5.23;2.10;;;;;;;19.47;20.88;101563.22;5038557;28;21083;-68
2022/04/17 10:48:08;;;;;;;2.10;1.40;;;;;;;19.21;21.24;101568.75;5048769;28;20467;-69
2022/04/17 10:50:44;;;;;;;2.13;1.80;;;;;;;19.30;21.99;101561.47;5055068;28;20480;-69
2022/04/17 10:53:24;;;;;;;2.93;2.10;;;;;;;19.12;21.88;101557.03;5077521;28;20513;-69
2022/04/17 10:56:06;;;;;;;2.70;1.77;;;;;;;20.57;20.88;101567.41;5077547;28;20543;-69
2022/04/17 10:58:37;;;;;;;3.20;2.10;;;;;;;21.37;20.09;101567.28;5069477;28;21049;-69
2022/04/17 11:01:04;;;;;;;6.00;1.97;;;;;;;20.38;19.88;101550.50;5071161;28;20566;-69
2022/04/17 11:03:34;;;;;;;5.10;2.03;;;;;;;19.44;21.15;101552.69;5079030;28;20436;-69
2022/04/17 11:06:30;;;;;;;2.70;2.00;;;;;;;19.06;21.29;101551.41;5096140;28;20574;-70
2022/04/17 11:09:04;;;;;;;2.50;1.77;;;;;;;19.47;20.25;101552.34;5087792;28;20448;-69
2022/04/17 11:11:36;;;;;;;2.63;2.00;;;;;;;19.96;19.58;101545.28;5077868;28;20467;-69
2022/04/17 11:14:09;;;;;;;4.23;1.50;;;;;;;20.45;19.47;101534.34;5077412;28;20452;-69
2022/04/17 11:16:57;;;;;;;1.83;1.63;;;;;;;20.20;17.92;101541.72;5077249;28;20482;-70
2022/04/17 11:19:26;;;;;;;3.33;1.40;;;;;;;19.55;17.29;101533.38;5071091;28;20456;-69
2022/04/17 11:21:56;;;;;;;2.10;1.63;;;;;;;18.58;19.56;101538.31;5076381;28;20487;-68
2022/04/17 11:24:23;;;;;;;3.43;2.33;;;;;;;18.93;21.96;101541.06;5076986;28;20462;-70
2022/04/17 11:27:11;;;;;;;2.37;2.00;;;;;;;19.53;22.04;101523.75;5075810;28;20517;-68
2022/04/17 11:29:44;;;;;;;1.97;1.40;;;;;;;19.61;18.87;101531.03;5090117;28;20504;-70
2022/04/17 11:32:50;;;;;;;2.10;1.63;;;;;;;19.27;18.08;101524.72;5096886;28;20481;-69
2022/04/17 11:35:22;;;;;;;2.83;1.93;;;;;;;20.15;18.36;101517.78;5076238;28;20456;-69
2022/04/17 11:37:56;;;;;;;2.97;2.00;;;;;;;19.71;21.18;101512.72;5077738;28;20923;-69
2022/04/17 11:40:25;;;;;;;2.90;2.07;;;;;;;19.92;21.57;101515.78;5076923;28;20448;-69
2022/04/17 11:42:54;;;;;;;4.53;2.50;;;;;;;19.31;20.17;101503.53;5077501;28;20432;-69
2022/04/17 11:45:22;;;;;;;3.33;2.40;;;;;;;19.16;20.48;101508.75;5075574;28;20519;-69